KCYS/CYS METAR and TAF weather

Enter ICAO airport designator
Station Type Date Time Source
KCYS METAR 2019/10/18 05:53 UTC NOAA

KCYS 180553Z AUTO 29009KT 10SM CLR 08/M12 A2966 RMK AO2 SLP972 T00781117 10189 20072 57007


Station Type Date Time Source
KCYS Decoded METAR 2019/10/18 05:53 UTC NOAA

CHEYENNE AIRPORT, WY, United States (KCYS) 41-09N 104-48W 1865M
Oct 18, 2019 - 01:53 AM EDT / 2019.10.18 0553 UTC
Wind: from the WNW (290 degrees) at 10 MPH (9 KT):0
Visibility: 10 mile(s):0
Sky conditions: clear
Temperature: 46.0 F (7.8 C)
Dew Point: 10.9 F (-11.7 C)
Relative Humidity: 23%
Pressure (altimeter): 29.66 in. Hg (1004 hPa)
Pressure tendency: 0.02 inches (0.7 hPa) lower than three hours ago
ob: KCYS 180553Z AUTO 29009KT 10SM CLR 08/M12 A2966 RMK AO2 SLP972 T00781117 10189 20072 57007
cycle: 6

Station Type Date Time Source
KCYS TAF 2019/10/18 06:22 UTC NOAA

TAF KCYS 180520Z 1806/1906 27012KT P6SM SKC
FM181200 28013G23KT P6SM SKC
FM181400 30018G28KT P6SM SCT200
FM181600 30028G40KT P6SM FEW250
FM190000 31017G27KT P6SM SCT080 BKN250

Example: see airport list